Time;durP1;ratioP1;P1;durP2;ratioP2;P2;SDS_P1;SDS_P2;PMS_P1;PMS_P2;Temp;Humidity;BMP_temperature;BMP_pressure;BME280_temperature;BME280_humidity;BME280_pressure;Samples;Min_cycle;Max_cycle;Signal;HPM_P1;HPM_P2
2022/09/05 04:17:17;;;;;;;5.63;2.65;;;;;;;14.26;100.00;100538.31;5178768;23;20065;-64
2022/09/05 04:19:49;;;;;;;4.85;2.70;;;;;;;14.33;100.00;100546.44;4973816;28;20031;-63
2022/09/05 04:22:36;;;;;;;7.20;2.50;;;;;;;14.23;100.00;100551.28;4973579;28;20046;-62
2022/09/05 04:25:04;;;;;;;4.18;2.25;;;;;;;14.29;100.00;100547.84;4973719;28;20039;-64
2022/09/05 04:27:29;;;;;;;4.03;2.50;;;;;;;14.24;100.00;100556.44;4973511;28;20442;-63
2022/09/05 04:32:49;;;;;;;3.83;2.42;;;;;;;14.28;100.00;100554.19;4932194;29;20537;-63
2022/09/05 04:35:33;;;;;;;5.07;2.50;;;;;;;14.29;100.00;100548.66;4934652;29;20443;-63
2022/09/05 04:38:13;;;;;;;5.03;2.75;;;;;;;14.14;100.00;100553.22;4934559;29;20126;-61
2022/09/05 04:40:38;;;;;;;4.68;2.60;;;;;;;14.08;100.00;100559.34;4932626;29;20031;-61
2022/09/05 04:43:09;;;;;;;5.03;2.85;;;;;;;14.02;100.00;100560.94;4934422;29;20036;-60
2022/09/05 04:45:43;;;;;;;4.88;2.50;;;;;;;14.07;100.00;100555.81;4934477;29;20630;-62
2022/09/05 04:48:16;;;;;;;6.55;3.17;;;;;;;14.07;100.00;100557.69;4934336;29;20036;-61
2022/09/05 04:51:07;;;;;;;4.80;2.28;;;;;;;14.16;100.00;100553.06;4934040;29;20118;-61
2022/09/05 04:53:35;;;;;;;4.97;2.53;;;;;;;14.17;100.00;100562.75;4934408;29;20038;-62
2022/09/05 04:56:08;;;;;;;4.55;2.75;;;;;;;14.07;100.00;100561.19;4934324;29;20035;-52
2022/09/05 04:58:43;;;;;;;4.80;2.63;;;;;;;14.00;100.00;100565.63;4934475;29;20043;-49
2022/09/05 05:01:17;;;;;;;4.55;2.47;;;;;;;14.00;100.00;100575.53;4934366;29;20550;-50
2022/09/05 05:03:44;;;;;;;3.38;2.45;;;;;;;13.95;100.00;100583.28;4934758;29;20046;-49
2022/09/05 05:06:31;;;;;;;5.30;2.65;;;;;;;14.00;100.00;100587.06;4934200;29;20540;-52
2022/09/05 05:09:01;;;;;;;4.00;2.60;;;;;;;13.95;100.00;100588.63;4934350;29;20059;-52
2022/09/05 05:11:48;;;;;;;4.85;3.30;;;;;;;13.97;100.00;100587.44;4933863;29;20046;-52
2022/09/05 05:14:17;;;;;;;2.88;2.47;;;;;;;14.04;100.00;100599.06;4934165;29;20461;-53
2022/09/05 05:16:51;;;;;;;5.35;3.08;;;;;;;14.04;100.00;100591.03;4933992;29;20035;-53
2022/09/05 05:19:56;;;;;;;6.78;3.42;;;;;;;14.06;100.00;100597.03;4932814;29;20403;-58
2022/09/05 05:22:21;;;;;;;5.93;2.78;;;;;;;14.11;100.00;100599.97;4932288;29;20055;-57
2022/09/05 05:24:54;;;;;;;4.80;2.95;;;;;;;14.13;100.00;100608.66;4932714;29;20139;-56
2022/09/05 05:27:37;;;;;;;3.95;3.08;;;;;;;14.21;100.00;100607.72;4934121;29;20055;-56
2022/09/05 05:30:06;;;;;;;5.07;3.08;;;;;;;14.27;100.00;100614.16;4933590;29;20055;-56
2022/09/05 05:32:41;;;;;;;4.47;3.00;;;;;;;14.33;100.00;100608.88;4933869;29;20127;-55
2022/09/05 05:35:12;;;;;;;5.75;2.97;;;;;;;14.43;100.00;100613.13;4933986;29;20040;-55
2022/09/05 05:37:45;;;;;;;4.68;2.55;;;;;;;14.51;100.00;100619.22;4933933;29;20043;-54
2022/09/05 05:40:13;;;;;;;5.28;2.67;;;;;;;14.59;100.00;100623.63;4933640;29;20119;-59
2022/09/05 05:42:40;;;;;;;4.38;2.75;;;;;;;14.63;100.00;100617.72;4933991;29;20044;-57
2022/09/05 05:45:14;;;;;;;7.25;3.20;;;;;;;14.79;100.00;100627.34;4933827;29;20086;-53
2022/09/05 05:47:47;;;;;;;7.95;2.97;;;;;;;14.89;100.00;100627.88;4933825;29;20114;-54
2022/09/05 05:50:21;;;;;;;6.75;2.72;;;;;;;15.00;100.00;100628.38;4933280;29;20040;-54
2022/09/05 05:53:08;;;;;;;10.32;3.92;;;;;;;15.11;100.00;100635.88;4933873;29;20043;-52
2022/09/05 05:55:54;;;;;;;5.95;3.10;;;;;;;15.25;100.00;100643.03;4932559;29;20071;-58
2022/09/05 05:58:32;;;;;;;5.78;3.10;;;;;;;15.35;100.00;100640.03;4933727;29;20447;-54
2022/09/05 06:01:25;;;;;;;8.10;3.22;;;;;;;15.46;100.00;100636.81;4932185;29;20038;-55
2022/09/05 06:04:15;;;;;;;7.57;3.60;;;;;;;15.56;100.00;100637.28;4933713;29;20118;-54
2022/09/05 06:06:58;;;;;;;5.25;3.45;;;;;;;15.65;100.00;100640.69;4933708;29;20032;-54
2022/09/05 06:09:38;;;;;;;6.63;3.45;;;;;;;15.74;100.00;100644.88;4933838;29;20071;-57
2022/09/05 06:12:16;;;;;;;6.03;3.35;;;;;;;15.78;100.00;100646.13;4933340;29;20440;-61
2022/09/05 06:14:58;;;;;;;7.03;3.80;;;;;;;15.85;100.00;100641.63;4932526;29;20106;-60
2022/09/05 06:17:42;;;;;;;5.97;3.22;;;;;;;15.92;100.00;100649.72;4933620;29;20050;-61
2022/09/05 06:20:47;;;;;;;7.15;3.65;;;;;;;15.98;100.00;100646.25;4933517;29;20027;-60
2022/09/05 06:23:35;;;;;;;7.35;3.45;;;;;;;16.03;100.00;100654.53;4933618;29;20038;-57
2022/09/05 06:26:22;;;;;;;6.93;3.33;;;;;;;16.09;100.00;100647.53;4933631;29;20057;-61
2022/09/05 06:29:21;;;;;;;7.88;3.72;;;;;;;16.17;100.00;100658.09;4935620;29;20367;-61
2022/09/05 06:32:10;;;;;;;6.03;3.53;;;;;;;16.19;100.00;100648.81;4936571;29;20036;-61
2022/09/05 06:35:15;;;;;;;6.40;3.47;;;;;;;16.25;100.00;100655.25;4937111;29;20458;-61
2022/09/05 06:38:00;;;;;;;8.75;3.85;;;;;;;16.27;100.00;100656.72;4936954;29;20039;-60
2022/09/05 06:40:46;;;;;;;5.53;3.17;;;;;;;16.32;100.00;100664.19;4936288;29;20123;-61
2022/09/05 06:43:30;;;;;;;7.10;3.58;;;;;;;16.35;100.00;100658.38;4936889;29;20521;-61
2022/09/05 06:46:21;;;;;;;4.22;2.88;;;;;;;16.37;100.00;100659.03;4936910;29;20410;-61
2022/09/05 06:48:58;;;;;;;7.65;3.92;;;;;;;16.39;100.00;100653.44;4936795;29;20047;-59
2022/09/05 06:51:32;;;;;;;5.35;2.72;;;;;;;16.41;100.00;100660.28;4936163;29;20087;-59
2022/09/05 06:54:35;;;;;;;4.70;3.33;;;;;;;16.47;100.00;100662.16;4936425;29;20403;-60
2022/09/05 06:57:12;;;;;;;5.57;3.38;;;;;;;16.52;100.00;100664.25;4934685;29;20483;-60
2022/09/05 07:00:02;;;;;;;5.68;3.38;;;;;;;16.56;100.00;100670.88;4936297;29;20035;-57
2022/09/05 07:02:51;;;;;;;7.43;3.63;;;;;;;16.57;100.00;100655.59;4936292;29;20035;-59
2022/09/05 07:05:34;;;;;;;7.45;3.17;;;;;;;16.66;100.00;100665.94;4935209;29;20036;-59
2022/09/05 07:08:16;;;;;;;6.75;3.47;;;;;;;16.69;100.00;100668.25;4936345;29;20126;-59
2022/09/05 07:10:54;;;;;;;5.50;3.53;;;;;;;16.72;100.00;100667.03;4935761;29;20044;-59
2022/09/05 07:13:26;;;;;;;;;;;;;;;16.73;100.00;100674.88;4936825;29;20052;-60
2022/09/05 07:16:21;;;;;;;5.63;3.50;;;;;;;16.83;100.00;100673.69;4936191;29;19921;-60
2022/09/05 07:19:17;;;;;;;6.63;3.60;;;;;;;16.88;100.00;100668.50;4932846;29;20079;-58
2022/09/05 07:22:11;;;;;;;6.03;3.63;;;;;;;16.92;99.92;100675.97;4934668;29;20051;-59
2022/09/05 07:24:39;;;;;;;5.82;3.65;;;;;;;16.94;98.14;100668.50;4936344;29;20043;-59
2022/09/05 07:27:08;;;;;;;5.10;3.60;;;;;;;17.00;98.53;100675.75;4935813;29;20098;-58
2022/09/05 07:29:43;;;;;;;6.28;3.67;;;;;;;17.05;98.37;100681.38;4936037;29;20094;-59
2022/09/05 07:32:15;;;;;;;6.05;3.65;;;;;;;17.12;98.68;100680.56;4935448;29;20434;-58
2022/09/05 07:34:44;;;;;;;5.03;3.40;;;;;;;17.18;99.33;100683.25;4935759;29;20166;-59
2022/09/05 07:37:21;;;;;;;5.70;3.53;;;;;;;17.27;98.52;100684.69;4935703;29;20110;-59
2022/09/05 07:40:01;;;;;;;7.15;3.88;;;;;;;17.35;99.50;100692.59;4935738;29;20122;-59
2022/09/05 07:42:55;;;;;;;7.07;3.40;;;;;;;17.36;97.01;100690.72;4935435;29;20044;-60
2022/09/05 07:45:25;;;;;;;6.07;3.92;;;;;;;17.41;95.96;100695.47;4930200;29;20118;-57
2022/09/05 07:48:10;;;;;;;6.40;3.80;;;;;;;17.44;95.98;100687.81;4935787;29;20055;-58
2022/09/05 07:50:49;;;;;;;9.77;3.80;;;;;;;17.46;96.05;100691.13;4935334;29;20110;-59
2022/09/05 07:53:15;;;;;;;7.15;3.80;;;;;;;17.46;95.84;100687.59;4935932;29;20036;-57
2022/09/05 07:55:41;;;;;;;6.60;3.35;;;;;;;17.49;96.50;100692.59;4935604;29;20044;-57
2022/09/05 07:58:15;;;;;;;6.07;3.88;;;;;;;17.51;96.15;100690.50;4935302;29;20083;-60
2022/09/05 08:00:43;;;;;;;5.90;3.70;;;;;;;17.59;97.26;100699.19;4934960;29;20035;-60
2022/09/05 08:03:13;;;;;;;10.15;4.40;;;;;;;17.64;97.65;100683.25;4935232;29;20136;-59
2022/09/05 08:05:49;;;;;;;9.38;3.78;;;;;;;17.78;95.39;100685.94;4934013;29;20047;-61
2022/09/05 08:08:21;;;;;;;8.13;3.20;;;;;;;17.81;93.89;100680.97;4935091;29;20043;-59
2022/09/05 08:10:50;;;;;;;5.88;3.58;;;;;;;17.98;94.99;100692.13;4934705;29;20486;-59
2022/09/05 08:13:22;;;;;;;9.85;4.25;;;;;;;18.15;94.47;100689.81;4934997;29;20036;-60
2022/09/05 08:15:52;;;;;;;5.15;2.97;;;;;;;18.22;94.57;100687.91;4935025;29;20627;-60
2022/09/05 08:18:40;;;;;;;7.95;3.63;;;;;;;18.37;93.37;100698.44;4934983;29;20047;-59
2022/09/05 08:21:12;;;;;;;5.65;3.60;;;;;;;18.49;92.05;100682.41;4934204;29;20379;-57
2022/09/05 08:24:08;;;;;;;4.35;3.15;;;;;;;18.58;89.97;100681.97;4934591;29;20126;-59
2022/09/05 08:26:53;;;;;;;6.28;3.25;;;;;;;18.70;89.81;100682.94;4933656;29;20091;-59
2022/09/05 08:29:39;;;;;;;6.70;3.95;;;;;;;18.81;89.19;100680.63;4934562;29;20040;-61
2022/09/05 08:32:20;;;;;;;5.03;2.90;;;;;;;18.96;88.33;100694.63;4934280;29;20062;-60
2022/09/05 08:35:05;;;;;;;6.22;3.47;;;;;;;19.23;86.81;100684.47;4934652;29;20043;-55
2022/09/05 08:37:32;;;;;;;5.80;3.53;;;;;;;19.35;84.98;100692.72;4934670;29;20082;-59
2022/09/05 08:40:07;;;;;;;11.10;3.70;;;;;;;19.54;83.80;100689.00;4934430;29;20118;-60
2022/09/05 08:42:51;;;;;;;4.45;3.22;;;;;;;19.65;82.51;100688.31;4933003;29;20036;-61
2022/09/05 08:45:39;;;;;;;4.15;3.15;;;;;;;19.71;82.96;100686.63;4934548;29;20046;-59
2022/09/05 08:48:23;;;;;;;5.97;3.17;;;;;;;19.81;83.86;100691.50;4934719;29;20040;-60
2022/09/05 08:51:44;;;;;;;4.82;3.17;;;;;;;19.96;83.25;100690.09;4933547;29;20054;-57
2022/09/05 08:54:45;;;;;;;5.90;3.72;;;;;;;20.20;81.51;100693.78;4925771;29;20059;-61
2022/09/05 08:57:44;;;;;;;6.63;3.78;;;;;;;20.44;81.08;100697.44;4925560;29;20392;-60
2022/09/05 09:00:13;;;;;;;6.03;3.42;;;;;;;20.78;81.19;100700.56;4934165;29;20040;-57
2022/09/05 09:03:16;;;;;;;4.15;3.38;;;;;;;21.14;77.81;100696.94;4934285;29;20048;-60
2022/09/05 09:05:53;;;;;;;6.45;3.30;;;;;;;21.20;77.01;100697.91;4922595;29;20071;-61
2022/09/05 09:08:38;;;;;;;;;;;;;;;21.27;77.06;100695.91;4934863;29;20042;-58
2022/09/05 09:11:29;;;;;;;5.15;3.70;;;;;;;21.55;75.84;100697.97;4934133;29;19919;-60
2022/09/05 09:14:34;;;;;;;3.67;2.90;;;;;;;21.67;76.82;100696.91;4934312;29;20126;-58
2022/09/05 09:17:06;;;;;;;4.75;2.67;;;;;;;21.86;77.07;100689.50;4934150;29;20031;-58
2022/09/05 09:19:46;;;;;;;6.63;3.00;;;;;;;21.98;75.45;100688.66;4934214;29;20098;-59
2022/09/05 09:22:51;;;;;;;3.95;2.60;;;;;;;22.53;75.80;100686.31;4934137;29;20035;-61
2022/09/05 09:25:38;;;;;;;5.10;2.95;;;;;;;22.45;73.36;100682.09;4933339;29;20039;-62
2022/09/05 09:28:22;;;;;;;3.15;2.67;;;;;;;22.56;72.66;100680.41;4934193;29;20067;-59
2022/09/05 09:31:34;;;;;;;4.43;2.92;;;;;;;22.77;71.63;100676.19;4934024;29;20464;-61
2022/09/05 09:34:46;;;;;;;4.38;2.92;;;;;;;23.15;70.09;100666.56;4933371;29;20138;-60
2022/09/05 09:37:43;;;;;;;4.65;2.97;;;;;;;23.71;68.05;100667.47;4900132;29;20043;-62
2022/09/05 09:40:25;;;;;;;4.60;2.90;;;;;;;23.88;66.94;100668.28;4931569;29;20083;-62
2022/09/05 09:43:30;;;;;;;5.32;3.17;;;;;;;24.24;67.26;100677.72;4929593;29;20459;-58
2022/09/05 09:46:26;;;;;;;3.05;2.42;;;;;;;24.30;65.27;100667.72;4927388;29;20503;-59
2022/09/05 09:49:13;;;;;;;2.65;2.15;;;;;;;24.51;62.33;100664.16;4934191;29;20032;-60
2022/09/05 09:52:13;;;;;;;3.72;2.88;;;;;;;24.70;61.68;100653.75;4933546;29;20051;-58
2022/09/05 09:54:58;;;;;;;3.17;2.25;;;;;;;24.90;61.14;100645.78;4933122;29;20048;-59
2022/09/05 09:57:55;;;;;;;3.05;2.17;;;;;;;25.22;58.00;100647.72;4933725;29;20054;-54
2022/09/05 10:00:28;;;;;;;5.00;2.58;;;;;;;25.90;58.58;100645.22;4932391;29;20031;-61
2022/09/05 10:03:22;;;;;;;4.28;2.53;;;;;;;26.18;56.13;100639.31;4934510;29;20127;-60
2022/09/05 10:06:02;;;;;;;3.33;2.10;;;;;;;26.43;53.85;100638.63;4935673;29;20040;-59
2022/09/05 10:08:59;;;;;;;2.70;2.22;;;;;;;27.27;51.52;100636.56;4937612;29;20063;-60
2022/09/05 10:11:44;;;;;;;;;;;;;;;27.78;49.91;100631.84;4937637;29;20122;-60
2022/09/05 10:14:42;;;;;;;2.78;2.15;;;;;;;28.25;49.68;100629.75;4937362;29;19914;-60
2022/09/05 10:17:39;;;;;;;2.65;2.03;;;;;;;28.65;45.93;100634.19;4936291;29;20081;-57
2022/09/05 10:20:20;;;;;;;3.78;2.20;;;;;;;29.31;44.67;100613.69;4937092;29;20036;-60
2022/09/05 10:23:04;;;;;;;3.22;2.30;;;;;;;29.52;43.67;100620.63;4935910;29;20062;-60
2022/09/05 10:25:52;;;;;;;3.20;2.05;;;;;;;29.82;44.42;100622.22;4937209;29;20043;-59
2022/09/05 10:29:05;;;;;;;2.92;1.90;;;;;;;30.33;43.20;100620.78;4937259;29;20039;-59
2022/09/05 10:31:40;;;;;;;4.30;1.83;;;;;;;30.83;41.86;100607.41;4934448;29;20047;-59
2022/09/05 10:34:17;;;;;;;3.35;1.70;;;;;;;30.46;41.90;100612.63;4934853;29;20606;-60
2022/09/05 10:36:51;;;;;;;2.67;2.03;;;;;;;31.22;39.74;100596.84;4935866;29;20460;-59
2022/09/05 10:39:19;;;;;;;1.85;1.70;;;;;;;31.50;40.15;100603.25;4936866;29;20046;-59
2022/09/05 10:41:54;;;;;;;4.50;1.83;;;;;;;32.04;39.13;100590.59;4936454;29;20052;-60
2022/09/05 10:44:31;;;;;;;2.08;1.77;;;;;;;32.40;38.16;100587.06;4936794;29;20043;-61
2022/09/05 10:47:04;;;;;;;6.00;2.22;;;;;;;32.72;37.48;100593.50;4936971;29;20098;-48
2022/09/05 10:49:36;;;;;;;2.63;1.90;;;;;;;33.13;36.46;100598.84;4936754;29;20099;-57
2022/09/05 10:52:01;;;;;;;2.33;1.60;;;;;;;33.21;36.85;100595.31;4936364;29;20046;-59
2022/09/05 10:54:29;;;;;;;2.17;1.43;;;;;;;33.19;36.23;100587.38;4936492;29;20481;-62
2022/09/05 10:57:38;;;;;;;2.13;1.70;;;;;;;33.07;35.38;100580.78;4937180;29;20580;-59
2022/09/05 11:00:37;;;;;;;2.60;1.65;;;;;;;33.32;37.16;100585.63;4928253;29;20126;-63
2022/09/05 11:03:03;;;;;;;1.85;1.67;;;;;;;33.52;34.66;100573.25;4936638;29;20483;-59
2022/09/05 11:05:37;;;;;;;1.83;1.45;;;;;;;33.57;33.96;100581.38;4936512;29;20088;-59
2022/09/05 11:08:11;;;;;;;2.33;1.70;;;;;;;33.72;34.88;100577.38;4937039;29;20040;-61
2022/09/05 11:10:55;;;;;;;1.45;1.25;;;;;;;33.87;33.95;100582.44;4936057;29;20111;-62
2022/09/05 11:13:35;;;;;;;1.60;1.45;;;;;;;34.42;32.34;100589.41;4935099;29;20035;-63
2022/09/05 11:16:39;;;;;;;2.03;1.70;;;;;;;34.37;32.82;100579.31;4936431;29;20063;-62
2022/09/05 11:19:18;;;;;;;1.30;1.20;;;;;;;34.64;32.97;100577.38;4934742;29;20440;-63
2022/09/05 11:21:53;;;;;;;1.73;1.30;;;;;;;34.72;33.88;100574.59;4936431;29;20118;-59
2022/09/05 11:25:01;;;;;;;1.80;1.20;;;;;;;34.72;33.00;100569.06;4934681;29;20036;-60
2022/09/05 11:27:39;;;;;;;1.63;1.35;;;;;;;34.69;34.50;100566.13;4935905;29;20035;-58
2022/09/05 11:30:18;;;;;;;1.77;1.35;;;;;;;35.41;32.07;100564.47;4935708;29;20035;-62
2022/09/05 11:32:53;;;;;;;2.05;1.40;;;;;;;35.97;31.79;100560.50;4935875;29;20039;-62
2022/09/05 11:35:23;;;;;;;2.58;1.50;;;;;;;36.15;30.94;100566.72;4935748;29;20504;-64
2022/09/05 11:37:59;;;;;;;1.45;1.30;;;;;;;36.30;29.83;100557.78;4935836;29;20043;-61
2022/09/05 11:40:31;;;;;;;1.77;1.30;;;;;;;36.25;29.92;100549.69;4935904;29;20042;-62
2022/09/05 11:43:03;;;;;;;1.40;1.30;;;;;;;36.28;29.98;100549.00;4934468;29;20040;-64
2022/09/05 11:45:45;;;;;;;3.35;1.48;;;;;;;35.95;31.43;100540.63;4935573;29;20106;-64
2022/09/05 11:48:35;;;;;;;1.73;1.45;;;;;;;36.05;31.50;100548.53;4934531;29;20475;-61
2022/09/05 11:51:22;;;;;;;1.60;1.30;;;;;;;35.95;31.34;100540.63;4935178;29;20043;-60
2022/09/05 11:54:16;;;;;;;1.60;1.40;;;;;;;35.82;30.32;100544.44;4935368;29;20047;-62
2022/09/05 11:56:57;;;;;;;1.73;1.50;;;;;;;36.12;30.08;100539.66;4934494;29;20090;-62
2022/09/05 11:59:51;;;;;;;2.40;1.67;;;;;;;36.37;28.51;100530.31;4935400;29;20122;-62
2022/09/05 12:02:32;;;;;;;1.30;1.20;;;;;;;36.79;29.08;100535.84;4933592;29;20079;-62
2022/09/05 12:05:19;;;;;;;1.48;1.38;;;;;;;36.68;28.78;100529.91;4935202;29;20122;-64
2022/09/05 12:08:01;;;;;;;2.40;1.60;;;;;;;36.34;29.66;100525.47;4935194;29;20381;-63
2022/09/05 12:11:04;;;;;;;1.95;1.20;;;;;;;36.35;29.41;100520.75;4933391;29;20539;-62
2022/09/05 12:13:51;;;;;;;1.67;1.25;;;;;;;36.97;29.50;100505.94;4934135;29;20071;-57
2022/09/05 12:16:25;;;;;;;1.80;1.20;;;;;;;37.43;28.59;100513.09;4935175;29;20399;-61
2022/09/05 12:19:21;;;;;;;1.33;1.15;;;;;;;36.85;28.36;100511.47;4935287;29;20123;-62
2022/09/05 12:22:01;;;;;;;2.10;1.33;;;;;;;37.29;27.95;100511.75;4933616;29;20063;-60
2022/09/05 12:24:45;;;;;;;1.20;1.10;;;;;;;37.32;28.10;100497.19;4934133;29;20123;-62
2022/09/05 12:27:14;;;;;;;1.23;1.08;;;;;;;37.34;27.48;100501.25;4935000;29;20028;-61
2022/09/05 12:29:47;;;;;;;1.85;1.50;;;;;;;37.14;27.63;100493.81;4934806;29;20039;-62
2022/09/05 12:32:19;;;;;;;1.23;1.13;;;;;;;37.53;28.15;100500.69;4934544;29;20048;-61
2022/09/05 12:34:54;;;;;;;1.33;1.15;;;;;;;37.22;27.91;100488.16;4934660;29;20047;-62
2022/09/05 12:37:26;;;;;;;1.73;1.08;;;;;;;37.82;26.46;100491.28;4934665;29;20078;-62
2022/09/05 12:39:58;;;;;;;1.30;1.10;;;;;;;37.67;26.67;100487.22;4933131;29;20131;-62
2022/09/05 12:42:37;;;;;;;1.10;0.90;;;;;;;37.79;26.84;100485.59;4934326;29;20454;-62
2022/09/05 12:45:14;;;;;;;1.20;1.10;;;;;;;38.42;25.66;100483.91;4934384;29;20043;-63
2022/09/05 12:48:13;;;;;;;1.65;1.08;;;;;;;37.15;28.17;100478.78;4934446;29;20042;-62
2022/09/05 12:50:54;;;;;;;1.55;1.05;;;;;;;38.17;26.86;100474.84;4933945;29;20545;-63
2022/09/05 12:53:21;;;;;;;1.65;1.13;;;;;;;38.24;25.93;100475.03;4934481;29;20040;-62
2022/09/05 12:56:06;;;;;;;1.33;1.00;;;;;;;38.51;25.82;100476.22;4934379;29;20105;-63
2022/09/05 12:58:34;;;;;;;1.80;1.13;;;;;;;38.18;25.44;100468.09;4932917;29;20031;-62
2022/09/05 13:01:26;;;;;;;1.13;1.02;;;;;;;38.29;25.95;100462.88;4933963;29;20042;-62
2022/09/05 13:03:57;;;;;;;1.20;1.02;;;;;;;38.80;25.46;100460.31;4934165;29;20043;-62
2022/09/05 13:06:31;;;;;;;1.30;1.20;;;;;;;38.32;25.70;100458.56;4934185;29;20047;-63
2022/09/05 13:09:09;;;;;;;1.48;1.13;;;;;;;38.48;25.28;100456.66;4932668;29;20039;-62
2022/09/05 13:11:50;;;;;;;1.02;0.98;;;;;;;37.75;26.30;100457.69;4933572;29;20032;-63
2022/09/05 13:14:27;;;;;;;1.17;1.08;;;;;;;38.02;24.73;100445.03;4934189;29;20039;-62
2022/09/05 13:16:54;;;;;;;1.17;1.08;;;;;;;38.42;25.77;100450.53;4934105;29;20039;-62
2022/09/05 13:19:31;;;;;;;1.83;1.00;;;;;;;38.37;25.04;100439.66;4934067;29;20115;-62
2022/09/05 13:22:00;;;;;;;1.10;0.80;;;;;;;37.63;26.24;100441.06;4933697;29;20514;-62
2022/09/05 13:24:33;;;;;;;1.50;1.20;;;;;;;38.37;25.10;100436.88;4933894;29;20062;-62
2022/09/05 13:27:24;;;;;;;1.00;0.88;;;;;;;38.36;24.77;100434.47;4933952;29;20430;-62
2022/09/05 13:29:57;;;;;;;0.98;0.90;;;;;;;37.21;24.62;100435.75;4933057;29;20360;-62
2022/09/05 13:32:32;;;;;;;0.80;0.80;;;;;;;37.69;23.10;100434.91;4933628;29;20040;-61
2022/09/05 13:35:22;;;;;;;0.68;0.68;;;;;;;38.09;24.23;100436.06;4932475;29;20123;-62
2022/09/05 13:38:00;;;;;;;1.00;0.68;;;;;;;37.03;25.39;100428.81;4937651;28;20504;-62
2022/09/05 13:40:32;;;;;;;1.73;1.13;;;;;;;38.13;24.96;100436.97;4937526;29;20147;-63
2022/09/05 13:43:12;;;;;;;1.25;1.08;;;;;;;38.00;25.02;100437.00;4937682;29;20099;-64
2022/09/05 13:45:56;;;;;;;0.90;0.85;;;;;;;37.77;23.25;100432.34;4938011;29;20406;-64
2022/09/05 13:48:36;;;;;;;1.08;0.93;;;;;;;37.82;24.21;100420.97;4937744;29;20099;-63
2022/09/05 13:51:22;;;;;;;1.27;1.00;;;;;;;37.33;25.91;100421.06;4937722;29;20106;-63
2022/09/05 13:53:57;;;;;;;1.23;0.85;;;;;;;36.11;25.90;100416.91;4937910;29;20035;-63
2022/09/05 13:56:30;;;;;;;0.90;0.80;;;;;;;35.63;26.16;100414.69;4938102;29;20188;-61
2022/09/05 13:59:05;;;;;;;1.38;1.10;;;;;;;35.15;26.84;100412.34;4937298;29;20046;-59
2022/09/05 14:02:00;;;;;;;1.13;0.90;;;;;;;34.50;28.10;100411.66;4937134;29;20438;-58
2022/09/05 14:04:34;;;;;;;1.52;1.10;;;;;;;33.46;27.72;100409.69;4937283;29;20054;-62
2022/09/05 14:07:25;;;;;;;1.02;0.93;;;;;;;33.01;27.66;100406.31;4937661;29;20498;-62
2022/09/05 14:10:32;;;;;;;0.82;0.82;;;;;;;33.07;29.07;100402.28;4937104;29;20349;-61
2022/09/05 14:13:02;;;;;;;1.48;1.10;;;;;;;32.45;30.74;100402.28;4931853;29;20491;-61
2022/09/05 14:15:33;;;;;;;1.75;1.10;;;;;;;32.29;29.79;100399.09;4936888;29;20066;-60
2022/09/05 14:18:05;;;;;;;1.10;1.00;;;;;;;32.06;30.26;100392.75;4937042;29;20035;-61
2022/09/05 14:23:30;;;;;;;2.13;1.17;;;;;;;31.95;30.71;100385.91;4936977;29;20043;-60
2022/09/05 14:26:03;;;;;;;1.70;1.00;;;;;;;31.86;31.62;100387.75;4951187;28;20057;-61
2022/09/05 14:28:42;;;;;;;1.08;0.90;;;;;;;31.88;32.37;100388.25;4934838;29;20200;-60
2022/09/05 14:31:11;;;;;;;1.40;0.95;;;;;;;31.46;31.17;100382.03;4936412;29;20044;-60
2022/09/05 14:33:49;;;;;;;2.50;1.10;;;;;;;31.20;32.47;100389.19;4936796;29;20040;-60
2022/09/05 14:36:38;;;;;;;1.80;0.98;;;;;;;31.10;32.18;100386.63;4936802;29;20035;-61
2022/09/05 14:39:12;;;;;;;2.05;0.90;;;;;;;31.25;32.53;100386.38;4936840;29;20094;-61
2022/09/05 14:42:04;;;;;;;0.80;0.80;;;;;;;31.36;29.96;100376.75;4936813;29;20036;-61
2022/09/05 14:44:57;;;;;;;1.42;0.90;;;;;;;31.30;30.46;100370.56;4937037;29;20053;-62
2022/09/05 14:47:51;;;;;;;1.50;1.23;;;;;;;31.30;28.61;100372.50;4951220;28;20435;-61
2022/09/05 14:50:31;;;;;;;1.40;0.85;;;;;;;31.23;29.00;100372.06;4936254;29;20367;-58
2022/09/05 14:53:01;;;;;;;0.82;0.70;;;;;;;30.93;29.36;100368.03;4936519;29;20031;-59
2022/09/05 14:55:27;;;;;;;0.82;0.80;;;;;;;31.00;28.56;100371.97;4936534;29;20043;-58
2022/09/05 14:57:53;;;;;;;1.40;0.82;;;;;;;30.63;29.73;100369.38;4936426;29;20042;-59
2022/09/05 15:00:22;;;;;;;1.13;0.68;;;;;;;30.62;29.07;100368.56;4935961;29;20035;-58
2022/09/05 15:02:54;;;;;;;1.40;0.93;;;;;;;30.69;29.57;100365.47;4936411;29;20040;-58
2022/09/05 15:05:38;;;;;;;2.83;0.80;;;;;;;30.62;28.74;100363.09;4936479;29;20047;-55
2022/09/05 15:08:10;;;;;;;1.67;0.80;;;;;;;30.64;30.61;100354.53;4936209;29;20047;-61
2022/09/05 15:10:44;;;;;;;0.98;0.68;;;;;;;30.62;30.88;100349.34;4935841;29;20050;-58
2022/09/05 15:13:10;;;;;;;1.00;0.70;;;;;;;30.49;30.98;100358.38;4934748;29;20067;-61
2022/09/05 15:15:44;;;;;;;1.77;0.88;;;;;;;30.30;30.12;100354.88;4935988;29;20102;-60
2022/09/05 15:18:21;;;;;;;1.25;0.90;;;;;;;30.24;30.30;100352.22;4935966;29;20472;-60
2022/09/05 15:20:49;;;;;;;1.48;1.02;;;;;;;30.34;31.01;100345.75;4935520;29;20031;-61
2022/09/05 15:23:18;;;;;;;1.00;0.90;;;;;;;30.31;30.06;100346.34;4935812;29;20039;-61
2022/09/05 15:26:04;;;;;;;0.70;0.70;;;;;;;30.29;30.71;100337.59;4936108;29;20479;-60
2022/09/05 15:28:43;;;;;;;2.63;1.23;;;;;;;30.29;31.10;100336.78;4951188;29;20040;-61
2022/09/05 15:31:20;;;;;;;2.38;1.42;;;;;;;30.13;30.16;100331.56;4936476;29;20031;-62
2022/09/05 15:33:46;;;;;;;;;;;;;;;30.06;29.73;100339.34;4937179;29;20050;-61
2022/09/05 15:36:13;;;;;;;1.15;0.70;;;;;;;29.99;30.27;100334.25;4938099;29;19911;-62
2022/09/05 15:38:41;;;;;;;1.63;0.82;;;;;;;29.92;31.00;100322.81;4938667;29;20466;-62
2022/09/05 15:41:28;;;;;;;0.80;0.80;;;;;;;29.94;31.73;100326.09;4935480;29;20035;-62
2022/09/05 15:43:57;;;;;;;0.77;0.75;;;;;;;29.93;30.80;100323.63;4950402;28;20036;-62
2022/09/05 15:46:27;;;;;;;1.08;0.80;;;;;;;29.78;28.43;100313.72;4935460;29;20395;-62
2022/09/05 15:48:57;;;;;;;0.70;0.70;;;;;;;29.79;28.65;100315.34;4935411;29;20161;-62
2022/09/05 15:51:48;;;;;;;0.93;0.77;;;;;;;29.83;28.61;100310.91;4935217;29;20534;-62
2022/09/05 15:54:39;;;;;;;0.85;0.70;;;;;;;29.80;27.54;100313.41;4936725;29;20115;-61
2022/09/05 15:57:09;;;;;;;0.60;0.60;;;;;;;29.76;26.53;100307.72;4937066;29;20040;-60
2022/09/05 15:59:46;;;;;;;0.70;0.50;;;;;;;29.68;26.39;100309.22;4934720;29;20035;-51
2022/09/05 16:02:35;;;;;;;1.50;1.02;;;;;;;29.59;34.74;100312.94;4935086;29;20082;-50
2022/09/05 16:05:01;;;;;;;1.17;0.90;;;;;;;29.40;35.52;100310.16;4935395;29;20047;-51
2022/09/05 16:07:27;;;;;;;0.98;0.75;;;;;;;29.29;35.92;100308.69;4935650;29;20024;-48
2022/09/05 16:09:54;;;;;;;1.60;0.90;;;;;;;29.25;35.32;100302.97;4935188;29;20090;-49
2022/09/05 16:12:38;;;;;;;0.82;0.82;;;;;;;29.14;28.54;100296.81;4935055;29;20792;-52
2022/09/05 16:15:06;;;;;;;0.77;0.77;;;;;;;29.14;26.93;100296.00;4934938;29;20040;-62
2022/09/05 16:17:37;;;;;;;2.03;1.40;;;;;;;29.13;27.48;100294.38;4934962;29;20095;-60
2022/09/05 16:20:19;;;;;;;1.38;1.05;;;;;;;29.11;29.82;100291.94;4933537;29;20059;-61
2022/09/05 16:22:47;;;;;;;1.55;1.00;;;;;;;29.12;30.74;100293.56;4934931;29;20035;-61
2022/09/05 16:25:28;;;;;;;1.27;1.00;;;;;;;29.08;31.55;100297.16;4934843;29;20042;-57
2022/09/05 16:28:05;;;;;;;1.05;0.88;;;;;;;29.04;32.51;100288.75;4934773;29;20051;-62
2022/09/05 16:30:34;;;;;;;0.68;0.63;;;;;;;29.00;34.06;100284.13;4960921;23;20162;-62
2022/09/05 16:33:06;;;;;;;1.10;0.82;;;;;;;28.94;34.79;100280.63;4993245;28;20034;-58
2022/09/05 16:35:39;;;;;;;1.05;0.95;;;;;;;28.83;36.10;100285.44;4992819;28;20034;-58
2022/09/05 16:38:19;;;;;;;0.70;0.70;;;;;;;28.80;36.74;100288.72;4992824;28;20062;-55
2022/09/05 16:40:59;;;;;;;1.17;1.00;;;;;;;28.81;38.52;100290.34;4988638;28;20122;-63
2022/09/05 16:43:34;;;;;;;0.95;0.55;;;;;;;28.83;39.04;100296.38;4973392;28;20035;-59
2022/09/05 16:46:06;;;;;;;0.60;0.60;;;;;;;28.83;38.73;100290.91;4973506;28;20125;-62